sensor_id;sensor_type;location;lat;lon;timestamp;pressure;altitude;pressure_sealevel;temperature;humidity
29825;BME280;16713;52.916;12.834;2024-03-25T00:01:12;99191.25;;;5.96;71.21
29825;BME280;16713;52.916;12.834;2024-03-25T00:03:37;99187.81;;;6.02;71.29
29825;BME280;16713;52.916;12.834;2024-03-25T00:06:03;99185.44;;;6.01;71.00
29825;BME280;16713;52.916;12.834;2024-03-25T00:08:28;99196.81;;;6.06;72.05
29825;BME280;16713;52.916;12.834;2024-03-25T00:10:54;99203.06;;;6.07;72.45
29825;BME280;16713;52.916;12.834;2024-03-25T00:13:20;99202.75;;;6.12;72.48
29825;BME280;16713;52.916;12.834;2024-03-25T00:15:46;99204.63;;;6.08;71.19
29825;BME280;16713;52.916;12.834;2024-03-25T00:18:11;99208.19;;;6.12;70.97
29825;BME280;16713;52.916;12.834;2024-03-25T00:20:37;99205.84;;;6.10;70.85
29825;BME280;16713;52.916;12.834;2024-03-25T00:23:02;99201.91;;;6.08;70.92
29825;BME280;16713;52.916;12.834;2024-03-25T00:25:28;99212.41;;;6.06;72.58
29825;BME280;16713;52.916;12.834;2024-03-25T00:27:53;99204.63;;;6.08;71.41
29825;BME280;16713;52.916;12.834;2024-03-25T00:30:19;99207.78;;;6.10;72.08
29825;BME280;16713;52.916;12.834;2024-03-25T00:32:45;99212.44;;;6.09;72.72
29825;BME280;16713;52.916;12.834;2024-03-25T00:35:10;99214.38;;;6.05;71.68
29825;BME280;16713;52.916;12.834;2024-03-25T00:37:36;99220.63;;;6.09;71.98
29825;BME280;16713;52.916;12.834;2024-03-25T00:40:01;99219.38;;;6.00;70.72
29825;BME280;16713;52.916;12.834;2024-03-25T00:42:27;99221.72;;;6.01;71.26
29825;BME280;16713;52.916;12.834;2024-03-25T00:44:52;99227.56;;;6.00;70.94
29825;BME280;16713;52.916;12.834;2024-03-25T00:47:18;99229.16;;;6.04;71.29
29825;BME280;16713;52.916;12.834;2024-03-25T00:49:43;99220.97;;;6.04;72.24
29825;BME280;16713;52.916;12.834;2024-03-25T00:52:08;99226.25;;;5.90;71.49
29825;BME280;16713;52.916;12.834;2024-03-25T00:54:34;99234.13;;;5.95;72.46
29825;BME280;16713;52.916;12.834;2024-03-25T00:56:59;99233.75;;;5.97;71.30
29825;BME280;16713;52.916;12.834;2024-03-25T00:59:25;99233.00;;;6.00;72.53
29825;BME280;16713;52.916;12.834;2024-03-25T01:01:50;99236.50;;;5.97;72.35
29825;BME280;16713;52.916;12.834;2024-03-25T01:04:16;99236.06;;;5.95;71.88
29825;BME280;16713;52.916;12.834;2024-03-25T01:06:42;99241.19;;;6.00;72.11
29825;BME280;16713;52.916;12.834;2024-03-25T01:09:07;99237.69;;;5.99;72.50
29825;BME280;16713;52.916;12.834;2024-03-25T01:11:33;99245.22;;;6.09;71.30
29825;BME280;16713;52.916;12.834;2024-03-25T01:13:59;99244.72;;;6.00;73.07
29825;BME280;16713;52.916;12.834;2024-03-25T01:16:24;99242.38;;;5.99;72.74
29825;BME280;16713;52.916;12.834;2024-03-25T01:18:50;99252.13;;;6.00;71.14
29825;BME280;16713;52.916;12.834;2024-03-25T01:21:15;99247.09;;;6.02;73.17
29825;BME280;16713;52.916;12.834;2024-03-25T01:23:41;99245.63;;;6.11;72.92
29825;BME280;16713;52.916;12.834;2024-03-25T01:26:06;99251.78;;;6.05;72.00
29825;BME280;16713;52.916;12.834;2024-03-25T01:28:32;99247.88;;;6.02;71.87
29825;BME280;16713;52.916;12.834;2024-03-25T01:30:57;99252.97;;;6.04;71.16
29825;BME280;16713;52.916;12.834;2024-03-25T01:33:23;99253.34;;;6.02;70.84
29825;BME280;16713;52.916;12.834;2024-03-25T01:35:49;99255.75;;;6.11;71.65
29825;BME280;16713;52.916;12.834;2024-03-25T01:38:14;99258.84;;;6.09;70.43
29825;BME280;16713;52.916;12.834;2024-03-25T01:40:39;99260.44;;;6.10;69.44
29825;BME280;16713;52.916;12.834;2024-03-25T01:43:05;99260.41;;;6.07;69.97
29825;BME280;16713;52.916;12.834;2024-03-25T01:45:33;99266.19;;;6.02;70.54
29825;BME280;16713;52.916;12.834;2024-03-25T01:48:02;99263.19;;;6.10;70.09
29825;BME280;16713;52.916;12.834;2024-03-25T01:50:29;99267.41;;;6.08;71.03
29825;BME280;16713;52.916;12.834;2024-03-25T01:52:56;99273.75;;;6.15;68.70
29825;BME280;16713;52.916;12.834;2024-03-25T01:55:24;99278.38;;;6.11;70.67
29825;BME280;16713;52.916;12.834;2024-03-25T01:57:50;99282.31;;;6.14;69.82
29825;BME280;16713;52.916;12.834;2024-03-25T02:00:16;99276.03;;;6.10;69.05
29825;BME280;16713;52.916;12.834;2024-03-25T02:02:43;99274.81;;;6.07;69.38
29825;BME280;16713;52.916;12.834;2024-03-25T02:05:14;99288.03;;;6.02;70.14
29825;BME280;16713;52.916;12.834;2024-03-25T02:07:40;99279.09;;;6.05;71.01
29825;BME280;16713;52.916;12.834;2024-03-25T02:10:08;99280.25;;;6.04;69.26
29825;BME280;16713;52.916;12.834;2024-03-25T02:12:37;99290.28;;;5.96;70.01
29825;BME280;16713;52.916;12.834;2024-03-25T02:15:04;99289.16;;;5.97;70.10
29825;BME280;16713;52.916;12.834;2024-03-25T02:17:30;99294.47;;;5.90;69.47
29825;BME280;16713;52.916;12.834;2024-03-25T02:19:56;99292.38;;;5.80;71.12
29825;BME280;16713;52.916;12.834;2024-03-25T02:22:21;99295.53;;;5.82;70.80
29825;BME280;16713;52.916;12.834;2024-03-25T02:24:49;99296.00;;;5.88;70.23
29825;BME280;16713;52.916;12.834;2024-03-25T02:27:16;99298.31;;;5.85;70.85
29825;BME280;16713;52.916;12.834;2024-03-25T02:29:42;99303.09;;;5.92;72.35
29825;BME280;16713;52.916;12.834;2024-03-25T02:32:08;99297.47;;;5.81;71.93
29825;BME280;16713;52.916;12.834;2024-03-25T02:34:46;99300.19;;;5.81;70.88
29825;BME280;16713;52.916;12.834;2024-03-25T02:37:12;99305.25;;;5.79;71.43
29825;BME280;16713;52.916;12.834;2024-03-25T02:39:38;99311.47;;;5.80;71.81
29825;BME280;16713;52.916;12.834;2024-03-25T02:42:04;99316.50;;;5.74;71.02
29825;BME280;16713;52.916;12.834;2024-03-25T02:44:31;99308.69;;;5.73;71.31
29825;BME280;16713;52.916;12.834;2024-03-25T02:46:57;99315.00;;;5.80;70.87
29825;BME280;16713;52.916;12.834;2024-03-25T02:49:22;99321.72;;;5.86;71.11
29825;BME280;16713;52.916;12.834;2024-03-25T02:51:48;99322.72;;;6.01;71.30
29825;BME280;16713;52.916;12.834;2024-03-25T02:54:13;99328.66;;;6.07;70.58
29825;BME280;16713;52.916;12.834;2024-03-25T02:56:40;99339.56;;;6.07;70.41
29825;BME280;16713;52.916;12.834;2024-03-25T02:59:05;99340.06;;;6.16;70.27
29825;BME280;16713;52.916;12.834;2024-03-25T03:01:31;99344.72;;;6.12;69.99
29825;BME280;16713;52.916;12.834;2024-03-25T03:03:57;99348.91;;;6.06;69.53
29825;BME280;16713;52.916;12.834;2024-03-25T03:06:22;99346.84;;;5.96;69.47
29825;BME280;16713;52.916;12.834;2024-03-25T03:08:48;99352.84;;;6.08;69.59
29825;BME280;16713;52.916;12.834;2024-03-25T03:11:13;99354.78;;;6.08;70.54
29825;BME280;16713;52.916;12.834;2024-03-25T03:13:38;99359.44;;;6.04;70.81
29825;BME280;16713;52.916;12.834;2024-03-25T03:16:04;99358.44;;;5.93;70.58
29825;BME280;16713;52.916;12.834;2024-03-25T03:18:30;99357.09;;;6.06;70.33
29825;BME280;16713;52.916;12.834;2024-03-25T03:20:55;99364.09;;;6.03;70.30
29825;BME280;16713;52.916;12.834;2024-03-25T03:23:22;99374.63;;;6.05;68.75
29825;BME280;16713;52.916;12.834;2024-03-25T03:25:47;99381.72;;;6.09;70.74
29825;BME280;16713;52.916;12.834;2024-03-25T03:28:13;99384.00;;;6.07;70.01
29825;BME280;16713;52.916;12.834;2024-03-25T03:30:40;99391.56;;;6.17;69.93
29825;BME280;16713;52.916;12.834;2024-03-25T03:33:06;99379.72;;;6.06;70.65
29825;BME280;16713;52.916;12.834;2024-03-25T03:35:33;99397.28;;;6.05;69.09
29825;BME280;16713;52.916;12.834;2024-03-25T03:37:58;99391.00;;;6.05;70.14
29825;BME280;16713;52.916;12.834;2024-03-25T03:40:23;99399.19;;;6.05;69.22
29825;BME280;16713;52.916;12.834;2024-03-25T03:42:49;99396.78;;;6.00;70.26
29825;BME280;16713;52.916;12.834;2024-03-25T03:45:14;99403.00;;;5.97;70.65
29825;BME280;16713;52.916;12.834;2024-03-25T03:47:40;99395.75;;;5.85;71.15
29825;BME280;16713;52.916;12.834;2024-03-25T03:50:06;99398.84;;;5.83;71.14
29825;BME280;16713;52.916;12.834;2024-03-25T03:52:33;99402.69;;;5.79;70.98
29825;BME280;16713;52.916;12.834;2024-03-25T03:54:58;99398.44;;;5.81;70.44
29825;BME280;16713;52.916;12.834;2024-03-25T03:57:24;99401.47;;;5.76;70.63
29825;BME280;16713;52.916;12.834;2024-03-25T03:59:51;99403.69;;;5.67;71.43
29825;BME280;16713;52.916;12.834;2024-03-25T04:02:17;99404.09;;;5.69;71.64
29825;BME280;16713;52.916;12.834;2024-03-25T04:04:42;99408.25;;;5.60;72.66
29825;BME280;16713;52.916;12.834;2024-03-25T04:07:07;99415.16;;;5.54;72.20
29825;BME280;16713;52.916;12.834;2024-03-25T04:09:33;99414.16;;;5.65;72.02
29825;BME280;16713;52.916;12.834;2024-03-25T04:11:58;99419.44;;;5.77;73.20
29825;BME280;16713;52.916;12.834;2024-03-25T04:14:26;99417.44;;;5.74;71.15
29825;BME280;16713;52.916;12.834;2024-03-25T04:16:51;99418.66;;;5.77;70.88
29825;BME280;16713;52.916;12.834;2024-03-25T04:19:25;99430.13;;;5.89;72.29
29825;BME280;16713;52.916;12.834;2024-03-25T04:21:50;99432.69;;;6.02;71.88
29825;BME280;16713;52.916;12.834;2024-03-25T04:24:17;99445.25;;;6.06;71.55
29825;BME280;16713;52.916;12.834;2024-03-25T04:26:44;99444.88;;;6.08;69.68
29825;BME280;16713;52.916;12.834;2024-03-25T04:29:09;99445.25;;;6.06;70.47
29825;BME280;16713;52.916;12.834;2024-03-25T04:31:35;99461.69;;;6.10;71.28
29825;BME280;16713;52.916;12.834;2024-03-25T04:34:01;99461.00;;;6.16;70.88
29825;BME280;16713;52.916;12.834;2024-03-25T04:36:27;99457.09;;;6.17;70.52
29825;BME280;16713;52.916;12.834;2024-03-25T04:38:52;99457.91;;;6.18;70.81
29825;BME280;16713;52.916;12.834;2024-03-25T04:41:18;99470.38;;;6.19;68.86
29825;BME280;16713;52.916;12.834;2024-03-25T04:43:43;99467.97;;;6.14;70.99
29825;BME280;16713;52.916;12.834;2024-03-25T04:46:08;99466.25;;;6.02;69.62
29825;BME280;16713;52.916;12.834;2024-03-25T04:48:34;99473.66;;;6.02;71.49
29825;BME280;16713;52.916;12.834;2024-03-25T04:51:00;99480.31;;;6.04;70.67
29825;BME280;16713;52.916;12.834;2024-03-25T04:53:25;99480.06;;;5.90;71.19
29825;BME280;16713;52.916;12.834;2024-03-25T04:55:51;99488.50;;;6.04;71.15
29825;BME280;16713;52.916;12.834;2024-03-25T04:58:16;99491.97;;;6.01;69.55
29825;BME280;16713;52.916;12.834;2024-03-25T05:00:41;99496.97;;;5.96;71.04
29825;BME280;16713;52.916;12.834;2024-03-25T05:03:07;99491.66;;;5.83;71.52
29825;BME280;16713;52.916;12.834;2024-03-25T05:05:33;99500.09;;;5.98;70.08
29825;BME280;16713;52.916;12.834;2024-03-25T05:07:59;99501.69;;;5.99;71.38
29825;BME280;16713;52.916;12.834;2024-03-25T05:10:24;99498.53;;;5.97;71.90
29825;BME280;16713;52.916;12.834;2024-03-25T05:12:50;99504.81;;;6.01;71.14
29825;BME280;16713;52.916;12.834;2024-03-25T05:15:15;99507.44;;;5.94;71.29
29825;BME280;16713;52.916;12.834;2024-03-25T05:17:41;99502.69;;;5.91;70.83
29825;BME280;16713;52.916;12.834;2024-03-25T05:20:07;99507.66;;;5.85;70.45
29825;BME280;16713;52.916;12.834;2024-03-25T05:22:33;99520.09;;;5.82;72.04
29825;BME280;16713;52.916;12.834;2024-03-25T05:24:58;99513.34;;;5.76;71.90
29825;BME280;16713;52.916;12.834;2024-03-25T05:27:23;99517.69;;;5.77;71.13
29825;BME280;16713;52.916;12.834;2024-03-25T05:29:49;99511.78;;;5.75;71.99
29825;BME280;16713;52.916;12.834;2024-03-25T05:32:15;99520.41;;;5.77;72.60
29825;BME280;16713;52.916;12.834;2024-03-25T05:34:42;99523.88;;;5.74;72.52
29825;BME280;16713;52.916;12.834;2024-03-25T05:37:08;99530.16;;;5.78;71.85
29825;BME280;16713;52.916;12.834;2024-03-25T05:39:33;99539.94;;;5.79;71.84
29825;BME280;16713;52.916;12.834;2024-03-25T05:41:59;99536.88;;;5.84;72.37
29825;BME280;16713;52.916;12.834;2024-03-25T05:44:24;99540.41;;;5.85;73.03
29825;BME280;16713;52.916;12.834;2024-03-25T05:46:49;99537.56;;;5.78;71.71
29825;BME280;16713;52.916;12.834;2024-03-25T05:49:15;99538.47;;;5.85;73.24
29825;BME280;16713;52.916;12.834;2024-03-25T05:51:40;99544.00;;;5.89;72.98
29825;BME280;16713;52.916;12.834;2024-03-25T05:54:06;99551.91;;;5.94;71.06
29825;BME280;16713;52.916;12.834;2024-03-25T05:56:31;99547.13;;;5.91;71.37
29825;BME280;16713;52.916;12.834;2024-03-25T05:58:57;99562.75;;;5.91;72.92
29825;BME280;16713;52.916;12.834;2024-03-25T06:01:23;99558.41;;;5.89;71.50
29825;BME280;16713;52.916;12.834;2024-03-25T06:03:48;99568.19;;;5.91;71.91
29825;BME280;16713;52.916;12.834;2024-03-25T06:06:14;99565.88;;;5.93;72.85
29825;BME280;16713;52.916;12.834;2024-03-25T06:08:39;99574.28;;;6.03;72.72
29825;BME280;16713;52.916;12.834;2024-03-25T06:11:04;99579.38;;;6.05;72.59
29825;BME280;16713;52.916;12.834;2024-03-25T06:13:30;99577.91;;;6.11;70.83
29825;BME280;16713;52.916;12.834;2024-03-25T06:15:55;99581.63;;;5.99;72.56
29825;BME280;16713;52.916;12.834;2024-03-25T06:18:21;99578.22;;;6.06;72.73
29825;BME280;16713;52.916;12.834;2024-03-25T06:20:46;99583.88;;;5.94;72.16
29825;BME280;16713;52.916;12.834;2024-03-25T06:23:25;99587.28;;;6.10;72.58
29825;BME280;16713;52.916;12.834;2024-03-25T06:25:51;99585.56;;;6.02;72.60
29825;BME280;16713;52.916;12.834;2024-03-25T06:28:18;99599.00;;;6.10;70.59
29825;BME280;16713;52.916;12.834;2024-03-25T06:30:45;99602.06;;;6.09;70.80
29825;BME280;16713;52.916;12.834;2024-03-25T06:33:30;99603.59;;;6.06;72.68
29825;BME280;16713;52.916;12.834;2024-03-25T06:36:14;99612.97;;;6.09;71.03
29825;BME280;16713;52.916;12.834;2024-03-25T06:38:40;99614.56;;;6.10;71.14
29825;BME280;16713;52.916;12.834;2024-03-25T06:41:05;99615.53;;;6.21;71.39
29825;BME280;16713;52.916;12.834;2024-03-25T06:43:31;99621.59;;;6.11;71.88
29825;BME280;16713;52.916;12.834;2024-03-25T06:45:56;99623.13;;;6.08;71.23
29825;BME280;16713;52.916;12.834;2024-03-25T06:48:21;99623.31;;;6.19;70.53
29825;BME280;16713;52.916;12.834;2024-03-25T06:50:57;99630.97;;;6.10;70.59
29825;BME280;16713;52.916;12.834;2024-03-25T06:53:23;99640.41;;;6.16;70.38
29825;BME280;16713;52.916;12.834;2024-03-25T06:55:53;99640.66;;;6.07;71.90
29825;BME280;16713;52.916;12.834;2024-03-25T06:58:19;99658.81;;;6.19;70.24
29825;BME280;16713;52.916;12.834;2024-03-25T07:00:45;99654.50;;;6.18;71.87
29825;BME280;16713;52.916;12.834;2024-03-25T07:03:11;99661.84;;;6.14;71.09
29825;BME280;16713;52.916;12.834;2024-03-25T07:05:37;99667.28;;;6.14;71.22
29825;BME280;16713;52.916;12.834;2024-03-25T07:08:02;99669.72;;;6.19;70.96
29825;BME280;16713;52.916;12.834;2024-03-25T07:10:28;99678.28;;;6.17;70.45
29825;BME280;16713;52.916;12.834;2024-03-25T07:12:53;99684.66;;;6.25;71.93
29825;BME280;16713;52.916;12.834;2024-03-25T07:15:18;99681.09;;;6.21;70.93
29825;BME280;16713;52.916;12.834;2024-03-25T07:17:45;99690.91;;;6.25;71.33
29825;BME280;16713;52.916;12.834;2024-03-25T07:20:10;99692.44;;;6.23;70.28
29825;BME280;16713;52.916;12.834;2024-03-25T07:22:36;99696.00;;;6.27;69.92
29825;BME280;16713;52.916;12.834;2024-03-25T07:25:01;99704.66;;;6.29;70.71
29825;BME280;16713;52.916;12.834;2024-03-25T07:27:27;99709.44;;;6.35;69.68
29825;BME280;16713;52.916;12.834;2024-03-25T07:29:52;99700.81;;;6.33;70.54
29825;BME280;16713;52.916;12.834;2024-03-25T07:32:17;99705.84;;;6.31;70.56
29825;BME280;16713;52.916;12.834;2024-03-25T07:34:43;99721.28;;;6.43;70.99
29825;BME280;16713;52.916;12.834;2024-03-25T07:37:08;99727.41;;;6.36;70.70
29825;BME280;16713;52.916;12.834;2024-03-25T07:39:34;99730.19;;;6.40;69.64
29825;BME280;16713;52.916;12.834;2024-03-25T07:41:59;99733.81;;;6.44;69.42
29825;BME280;16713;52.916;12.834;2024-03-25T07:44:25;99735.06;;;6.50;71.01
29825;BME280;16713;52.916;12.834;2024-03-25T07:46:50;99730.06;;;6.33;69.61
29825;BME280;16713;52.916;12.834;2024-03-25T07:49:15;99732.78;;;6.33;70.15
29825;BME280;16713;52.916;12.834;2024-03-25T07:51:41;99741.78;;;6.33;70.90
29825;BME280;16713;52.916;12.834;2024-03-25T07:54:06;99748.28;;;6.25;71.69
29825;BME280;16713;52.916;12.834;2024-03-25T07:56:33;99746.63;;;6.21;70.99
29825;BME280;16713;52.916;12.834;2024-03-25T07:59:02;99753.66;;;6.22;71.75
29825;BME280;16713;52.916;12.834;2024-03-25T08:01:29;99751.06;;;6.29;70.80
29825;BME280;16713;52.916;12.834;2024-03-25T08:03:54;99762.72;;;6.26;72.44
29825;BME280;16713;52.916;12.834;2024-03-25T08:06:20;99763.63;;;6.33;72.42
29825;BME280;16713;52.916;12.834;2024-03-25T08:08:47;99762.84;;;6.33;71.91
29825;BME280;16713;52.916;12.834;2024-03-25T08:11:12;99770.75;;;6.38;70.95
29825;BME280;16713;52.916;12.834;2024-03-25T08:13:38;99765.72;;;6.40;71.16
29825;BME280;16713;52.916;12.834;2024-03-25T08:16:03;99771.25;;;6.43;72.23
29825;BME280;16713;52.916;12.834;2024-03-25T08:18:29;99770.81;;;6.41;72.21
29825;BME280;16713;52.916;12.834;2024-03-25T08:20:54;99777.19;;;6.49;70.98
29825;BME280;16713;52.916;12.834;2024-03-25T08:23:20;99779.53;;;6.47;71.44
29825;BME280;16713;52.916;12.834;2024-03-25T08:25:45;99777.16;;;6.45;71.00
29825;BME280;16713;52.916;12.834;2024-03-25T08:28:10;99787.06;;;6.53;71.52
29825;BME280;16713;52.916;12.834;2024-03-25T08:30:36;99787.16;;;6.60;71.52
29825;BME280;16713;52.916;12.834;2024-03-25T08:33:02;99785.59;;;6.59;70.02
29825;BME280;16713;52.916;12.834;2024-03-25T08:35:27;99796.97;;;6.61;72.33
29825;BME280;16713;52.916;12.834;2024-03-25T08:37:52;99798.91;;;6.61;70.80
29825;BME280;16713;52.916;12.834;2024-03-25T08:40:18;99798.09;;;6.60;72.25
29825;BME280;16713;52.916;12.834;2024-03-25T08:42:43;99809.41;;;6.59;71.75
29825;BME280;16713;52.916;12.834;2024-03-25T08:45:09;99808.66;;;6.62;72.39
29825;BME280;16713;52.916;12.834;2024-03-25T08:47:35;99813.91;;;6.70;70.65
29825;BME280;16713;52.916;12.834;2024-03-25T08:50:01;99813.09;;;6.70;71.79
29825;BME280;16713;52.916;12.834;2024-03-25T08:52:27;99814.34;;;6.72;71.13
29825;BME280;16713;52.916;12.834;2024-03-25T08:54:52;99815.69;;;6.82;69.88
29825;BME280;16713;52.916;12.834;2024-03-25T08:57:18;99817.97;;;6.80;69.77
29825;BME280;16713;52.916;12.834;2024-03-25T08:59:43;99827.28;;;6.75;70.22
29825;BME280;16713;52.916;12.834;2024-03-25T09:02:09;99825.75;;;6.78;70.77
29825;BME280;16713;52.916;12.834;2024-03-25T09:04:34;99820.53;;;6.69;70.73
29825;BME280;16713;52.916;12.834;2024-03-25T09:07:00;99825.75;;;6.78;70.91
29825;BME280;16713;52.916;12.834;2024-03-25T09:09:25;99825.34;;;6.76;70.27
29825;BME280;16713;52.916;12.834;2024-03-25T09:12:09;99832.00;;;6.78;69.81
29825;BME280;16713;52.916;12.834;2024-03-25T09:14:35;99833.44;;;6.91;70.13
29825;BME280;16713;52.916;12.834;2024-03-25T09:17:02;99833.34;;;6.88;69.47
29825;BME280;16713;52.916;12.834;2024-03-25T09:19:28;99822.72;;;6.83;68.92
29825;BME280;16713;52.916;12.834;2024-03-25T09:21:53;99834.47;;;6.83;69.29
29825;BME280;16713;52.916;12.834;2024-03-25T09:24:18;99840.66;;;6.80;70.42
29825;BME280;16713;52.916;12.834;2024-03-25T09:26:44;99848.06;;;6.80;70.10
29825;BME280;16713;52.916;12.834;2024-03-25T09:29:11;99852.34;;;6.81;69.17
29825;BME280;16713;52.916;12.834;2024-03-25T09:31:37;99859.84;;;6.84;69.63
29825;BME280;16713;52.916;12.834;2024-03-25T09:34:02;99860.34;;;6.89;70.30
29825;BME280;16713;52.916;12.834;2024-03-25T09:36:28;99866.41;;;7.02;68.45
29825;BME280;16713;52.916;12.834;2024-03-25T09:38:53;99870.44;;;7.08;68.24
29825;BME280;16713;52.916;12.834;2024-03-25T09:41:19;99865.22;;;6.99;69.15
29825;BME280;16713;52.916;12.834;2024-03-25T09:43:48;99873.56;;;7.06;68.29
29825;BME280;16713;52.916;12.834;2024-03-25T09:46:15;99867.50;;;6.97;70.41
29825;BME280;16713;52.916;12.834;2024-03-25T09:48:42;99865.50;;;6.94;69.77
29825;BME280;16713;52.916;12.834;2024-03-25T09:51:09;99880.09;;;7.02;69.17
29825;BME280;16713;52.916;12.834;2024-03-25T09:53:35;99871.94;;;7.05;68.82
29825;BME280;16713;52.916;12.834;2024-03-25T09:56:00;99878.91;;;7.22;68.80
29825;BME280;16713;52.916;12.834;2024-03-25T09:58:27;99884.44;;;7.25;67.62
29825;BME280;16713;52.916;12.834;2024-03-25T10:00:53;99888.81;;;7.30;67.09
29825;BME280;16713;52.916;12.834;2024-03-25T10:03:20;99890.28;;;7.24;67.20
29825;BME280;16713;52.916;12.834;2024-03-25T10:05:46;99893.72;;;7.21;66.91
29825;BME280;16713;52.916;12.834;2024-03-25T10:08:12;99891.97;;;7.09;67.38
29825;BME280;16713;52.916;12.834;2024-03-25T10:10:37;99896.69;;;7.12;67.58
29825;BME280;16713;52.916;12.834;2024-03-25T10:13:03;99891.66;;;7.14;67.78
29825;BME280;16713;52.916;12.834;2024-03-25T10:15:30;99896.63;;;7.09;68.04
29825;BME280;16713;52.916;12.834;2024-03-25T10:17:56;99898.81;;;7.00;68.83
29825;BME280;16713;52.916;12.834;2024-03-25T10:20:21;99900.09;;;7.06;67.58
29825;BME280;16713;52.916;12.834;2024-03-25T10:22:47;99904.41;;;7.07;69.39
29825;BME280;16713;52.916;12.834;2024-03-25T10:25:31;99906.72;;;7.05;69.53
29825;BME280;16713;52.916;12.834;2024-03-25T10:28:01;99921.53;;;7.04;68.39
29825;BME280;16713;52.916;12.834;2024-03-25T10:30:28;99908.44;;;6.94;68.82
29825;BME280;16713;52.916;12.834;2024-03-25T10:33:00;99918.25;;;6.95;70.00
29825;BME280;16713;52.916;12.834;2024-03-25T10:35:27;99909.00;;;6.80;68.59
29825;BME280;16713;52.916;12.834;2024-03-25T10:37:56;99913.72;;;6.83;68.74
29825;BME280;16713;52.916;12.834;2024-03-25T10:40:42;99915.81;;;6.90;67.62
29825;BME280;16713;52.916;12.834;2024-03-25T10:43:10;99915.09;;;6.93;67.49
29825;BME280;16713;52.916;12.834;2024-03-25T10:45:47;99920.25;;;6.98;67.21
29825;BME280;16713;52.916;12.834;2024-03-25T10:48:20;99918.00;;;7.03;67.07
29825;BME280;16713;52.916;12.834;2024-03-25T10:50:47;99914.56;;;7.06;65.72
29825;BME280;16713;52.916;12.834;2024-03-25T10:53:14;99923.31;;;7.15;65.21
29825;BME280;16713;52.916;12.834;2024-03-25T10:55:44;99921.69;;;7.11;65.63
29825;BME280;16713;52.916;12.834;2024-03-25T10:58:15;99924.97;;;7.20;65.63
29825;BME280;16713;52.916;12.834;2024-03-25T11:00:42;99927.69;;;7.20;64.86
29825;BME280;16713;52.916;12.834;2024-03-25T11:03:07;99927.94;;;7.31;66.21
29825;BME280;16713;52.916;12.834;2024-03-25T11:05:34;99919.38;;;7.32;65.64
29825;BME280;16713;52.916;12.834;2024-03-25T11:08:13;99914.03;;;7.20;65.58
29825;BME280;16713;52.916;12.834;2024-03-25T11:10:40;99923.94;;;7.28;66.42
29825;BME280;16713;52.916;12.834;2024-03-25T11:13:10;99916.25;;;7.34;67.15
29825;BME280;16713;52.916;12.834;2024-03-25T11:15:43;99917.53;;;7.40;67.91
29825;BME280;16713;52.916;12.834;2024-03-25T11:18:13;99913.25;;;7.42;67.73
29825;BME280;16713;52.916;12.834;2024-03-25T11:20:40;99913.31;;;7.46;67.60
29825;BME280;16713;52.916;12.834;2024-03-25T11:23:10;99923.66;;;7.56;67.64
29825;BME280;16713;52.916;12.834;2024-03-25T11:25:40;99918.25;;;7.59;66.16
29825;BME280;16713;52.916;12.834;2024-03-25T11:28:07;99915.22;;;7.64;67.23
29825;BME280;16713;52.916;12.834;2024-03-25T11:30:33;99913.69;;;7.67;66.03
29825;BME280;16713;52.916;12.834;2024-03-25T11:33:01;99916.47;;;7.70;65.05
29825;BME280;16713;52.916;12.834;2024-03-25T11:35:30;99919.69;;;7.76;64.68
29825;BME280;16713;52.916;12.834;2024-03-25T11:37:55;99917.63;;;7.69;61.60
29825;BME280;16713;52.916;12.834;2024-03-25T11:40:21;99912.50;;;7.68;61.62
29825;BME280;16713;52.916;12.834;2024-03-25T11:42:46;99908.63;;;7.69;62.28
29825;BME280;16713;52.916;12.834;2024-03-25T11:45:19;99916.34;;;7.63;62.80
29825;BME280;16713;52.916;12.834;2024-03-25T11:47:46;99904.81;;;7.51;63.47
29825;BME280;16713;52.916;12.834;2024-03-25T11:50:13;99905.25;;;7.53;64.16
29825;BME280;16713;52.916;12.834;2024-03-25T11:52:39;99906.94;;;7.61;63.80
29825;BME280;16713;52.916;12.834;2024-03-25T11:55:05;99911.91;;;7.55;64.59
29825;BME280;16713;52.916;12.834;2024-03-25T11:57:31;99909.19;;;7.55;64.31
29825;BME280;16713;52.916;12.834;2024-03-25T11:59:59;99913.19;;;7.61;62.81
29825;BME280;16713;52.916;12.834;2024-03-25T12:02:25;99921.09;;;7.66;64.10
29825;BME280;16713;52.916;12.834;2024-03-25T12:04:51;99923.59;;;7.75;62.66
29825;BME280;16713;52.916;12.834;2024-03-25T12:07:17;99923.66;;;7.78;62.15
29825;BME280;16713;52.916;12.834;2024-03-25T12:09:42;99929.91;;;7.79;62.95
29825;BME280;16713;52.916;12.834;2024-03-25T12:12:26;99932.44;;;7.91;61.76
29825;BME280;16713;52.916;12.834;2024-03-25T12:14:53;99931.75;;;7.97;61.27
29825;BME280;16713;52.916;12.834;2024-03-25T12:17:19;99941.28;;;8.07;61.75
29825;BME280;16713;52.916;12.834;2024-03-25T12:22:26;99936.81;;;8.21;61.26
29825;BME280;16713;52.916;12.834;2024-03-25T12:24:52;99929.75;;;8.20;60.87
29825;BME280;16713;52.916;12.834;2024-03-25T12:27:17;99945.97;;;8.32;61.22
29825;BME280;16713;52.916;12.834;2024-03-25T12:29:43;99939.31;;;8.33;60.91
29825;BME280;16713;52.916;12.834;2024-03-25T12:32:10;99942.53;;;8.39;60.43
29825;BME280;16713;52.916;12.834;2024-03-25T12:34:35;99942.59;;;8.42;59.85
29825;BME280;16713;52.916;12.834;2024-03-25T12:37:02;99947.63;;;8.40;59.97
29825;BME280;16713;52.916;12.834;2024-03-25T12:39:29;99948.13;;;8.46;59.58
29825;BME280;16713;52.916;12.834;2024-03-25T12:41:56;99945.41;;;8.49;59.08
29825;BME280;16713;52.916;12.834;2024-03-25T12:44:21;99946.72;;;8.55;59.32
29825;BME280;16713;52.916;12.834;2024-03-25T12:46:47;99945.81;;;8.51;59.38
29825;BME280;16713;52.916;12.834;2024-03-25T12:49:13;99945.47;;;8.53;59.26
29825;BME280;16713;52.916;12.834;2024-03-25T12:51:38;99945.91;;;8.55;59.12
29825;BME280;16713;52.916;12.834;2024-03-25T12:54:03;99951.03;;;8.56;58.75
29825;BME280;16713;52.916;12.834;2024-03-25T12:56:29;99956.78;;;8.51;58.89
29825;BME280;16713;52.916;12.834;2024-03-25T12:58:54;99959.91;;;8.50;57.76